createdAt,value
2019-04-29T00:00:20.656Z,0
2019-04-29T00:01:20.608Z,0
2019-04-29T00:02:20.661Z,0
2019-04-29T00:03:20.539Z,0
2019-04-29T00:04:20.596Z,0
2019-04-29T00:05:20.561Z,0
2019-04-29T00:06:20.543Z,0
2019-04-29T00:07:20.570Z,0
2019-04-29T00:08:20.600Z,0
2019-04-29T00:09:20.591Z,0
2019-04-29T00:10:20.605Z,0
2019-04-29T00:11:20.599Z,0
2019-04-29T00:12:20.615Z,0
2019-04-29T00:13:20.659Z,0
2019-04-29T00:14:20.671Z,0
2019-04-29T00:15:20.641Z,0
2019-04-29T00:16:20.615Z,0
2019-04-29T00:17:20.606Z,0
2019-04-29T00:18:20.673Z,0
2019-04-29T00:19:20.688Z,0
2019-04-29T00:20:20.706Z,0
2019-04-29T00:21:20.721Z,0
2019-04-29T00:22:20.717Z,0
2019-04-29T00:23:20.679Z,0
2019-04-29T00:24:20.706Z,0
2019-04-29T00:25:20.631Z,0
2019-04-29T00:26:20.677Z,0
2019-04-29T00:27:20.707Z,0
2019-04-29T00:28:20.622Z,0
2019-04-29T00:29:20.692Z,0
2019-04-29T00:30:20.622Z,0
2019-04-29T00:31:20.649Z,0
2019-04-29T00:32:20.627Z,0
2019-04-29T00:33:20.763Z,0
2019-04-29T00:34:20.627Z,0
2019-04-29T00:35:20.699Z,0
2019-04-29T00:36:20.652Z,0
2019-04-29T00:37:20.797Z,0
2019-04-29T00:38:20.708Z,0
2019-04-29T00:39:20.686Z,0
2019-04-29T00:40:20.618Z,0
2019-04-29T00:41:20.616Z,0
2019-04-29T00:42:20.695Z,0
2019-04-29T00:43:20.631Z,0
2019-04-29T00:44:20.694Z,0
2019-04-29T00:45:20.623Z,0
2019-04-29T00:46:20.697Z,0
2019-04-29T00:47:20.632Z,0
2019-04-29T00:48:20.631Z,0
2019-04-29T00:49:20.711Z,0
2019-04-29T00:50:20.581Z,0
2019-04-29T00:51:20.622Z,0
2019-04-29T00:52:20.698Z,0
2019-04-29T00:53:20.629Z,0
2019-04-29T00:54:20.622Z,0
2019-04-29T00:55:20.642Z,0
2019-04-29T00:56:20.665Z,0
2019-04-29T00:57:20.652Z,0
2019-04-29T00:58:20.605Z,0
2019-04-29T00:59:20.725Z,0
2019-04-29T01:00:20.647Z,0
2019-04-29T01:01:20.649Z,0
2019-04-29T01:02:20.646Z,0
2019-04-29T01:03:20.722Z,0
2019-04-29T01:04:20.687Z,0
2019-04-29T01:05:20.736Z,0
2019-04-29T01:06:20.647Z,0
2019-04-29T01:07:20.730Z,0
2019-04-29T01:08:20.730Z,0
2019-04-29T01:09:20.664Z,0
2019-04-29T01:10:20.732Z,0
2019-04-29T01:11:20.725Z,0
2019-04-29T01:12:20.715Z,0
2019-04-29T01:13:20.672Z,0
2019-04-29T01:14:20.732Z,0
2019-04-29T01:15:20.736Z,0
2019-04-29T01:16:20.620Z,0
2019-04-29T01:17:20.729Z,0
2019-04-29T01:18:20.661Z,0
2019-04-29T01:19:20.587Z,0
2019-04-29T01:20:20.668Z,0
2019-04-29T01:21:20.707Z,0
2019-04-29T01:22:20.702Z,0
2019-04-29T01:23:20.684Z,0
2019-04-29T01:24:20.681Z,0
2019-04-29T01:25:20.613Z,0
2019-04-29T01:26:20.685Z,0
2019-04-29T01:27:20.597Z,0
2019-04-29T01:28:20.685Z,0
2019-04-29T01:29:20.718Z,0
2019-04-29T01:30:20.617Z,0
2019-04-29T01:31:20.782Z,0
2019-04-29T01:32:20.710Z,0
2019-04-29T01:33:20.724Z,0
2019-04-29T01:34:20.723Z,0
2019-04-29T01:35:20.720Z,0
2019-04-29T01:36:20.721Z,0
2019-04-29T01:37:20.630Z,0
2019-04-29T01:38:20.614Z,0
2019-04-29T01:39:20.768Z,0
2019-04-29T01:40:20.684Z,0
2019-04-29T01:41:20.756Z,0
2019-04-29T01:42:20.679Z,0
2019-04-29T01:43:20.682Z,0
2019-04-29T01:44:20.689Z,0
2019-04-29T01:45:20.680Z,0
2019-04-29T01:46:20.694Z,0
2019-04-29T01:47:20.755Z,0
2019-04-29T01:48:20.751Z,0
2019-04-29T01:49:20.646Z,0
2019-04-29T01:50:20.694Z,0
2019-04-29T01:51:20.689Z,0
2019-04-29T01:52:20.683Z,0
2019-04-29T01:53:20.740Z,0
2019-04-29T01:54:20.649Z,0
2019-04-29T01:55:20.688Z,0
2019-04-29T01:56:20.701Z,0
2019-04-29T01:57:20.770Z,0
2019-04-29T01:58:20.768Z,0
2019-04-29T01:59:20.770Z,0
2019-04-29T02:00:20.656Z,0
2019-04-29T02:01:20.707Z,0
2019-04-29T02:02:20.646Z,0
2019-04-29T02:03:20.619Z,0
2019-04-29T02:04:20.676Z,0
2019-04-29T02:05:20.607Z,0
2019-04-29T02:06:20.716Z,0
2019-04-29T02:07:20.735Z,0
2019-04-29T02:08:20.712Z,0
2019-04-29T02:09:20.641Z,0
2019-04-29T02:10:20.698Z,0
2019-04-29T02:11:20.653Z,0
2019-04-29T02:12:20.655Z,0
2019-04-29T02:13:20.751Z,0
2019-04-29T02:14:20.759Z,0
2019-04-29T02:15:20.767Z,0
2019-04-29T02:16:20.724Z,0
2019-04-29T02:17:20.793Z,0
2019-04-29T02:18:20.691Z,0
2019-04-29T02:19:20.757Z,0
2019-04-29T02:20:20.685Z,0
2019-04-29T02:21:20.769Z,0
2019-04-29T02:22:20.687Z,0
2019-04-29T02:23:20.641Z,0
2019-04-29T02:24:20.697Z,0
2019-04-29T02:25:20.721Z,0
2019-04-29T02:26:20.771Z,0
2019-04-29T02:27:20.766Z,0
2019-04-29T02:28:20.651Z,0
2019-04-29T02:29:20.743Z,0
2019-04-29T02:30:20.856Z,0
2019-04-29T02:31:20.782Z,0
2019-04-29T02:32:20.778Z,0
2019-04-29T02:33:20.705Z,0
2019-04-29T02:34:20.776Z,0
2019-04-29T02:35:20.739Z,0
2019-04-29T02:36:20.795Z,0
2019-04-29T02:37:20.709Z,0
2019-04-29T02:38:20.781Z,0
2019-04-29T02:39:20.715Z,0
2019-04-29T02:40:20.801Z,0
2019-04-29T02:41:20.726Z,0
2019-04-29T02:42:20.744Z,0
2019-04-29T02:43:20.800Z,0
2019-04-29T02:44:20.718Z,0
2019-04-29T02:45:20.746Z,0
2019-04-29T02:46:20.807Z,0
2019-04-29T02:47:20.728Z,0
2019-04-29T02:48:20.797Z,0
2019-04-29T02:49:20.798Z,0
2019-04-29T02:50:20.799Z,0
2019-04-29T02:51:20.737Z,0
2019-04-29T02:52:20.669Z,0
2019-04-29T02:53:20.669Z,0
2019-04-29T02:54:20.697Z,0
2019-04-29T02:55:20.787Z,0
2019-04-29T02:56:20.675Z,0
2019-04-29T02:57:20.683Z,0
2019-04-29T02:58:20.793Z,0
2019-04-29T02:59:20.715Z,0
2019-04-29T03:00:20.737Z,0
2019-04-29T03:01:20.811Z,0
2019-04-29T03:02:20.748Z,0
2019-04-29T03:03:20.802Z,0
2019-04-29T03:04:20.742Z,0
2019-04-29T03:05:20.748Z,0
2019-04-29T03:06:20.833Z,0
2019-04-29T03:07:20.705Z,0
2019-04-29T03:08:20.822Z,0
2019-04-29T03:09:20.820Z,0
2019-04-29T03:10:20.803Z,0
2019-04-29T03:11:20.733Z,0
2019-04-29T03:12:20.800Z,0
2019-04-29T03:14:20.804Z,0
2019-04-29T03:15:20.738Z,0
2019-04-29T03:16:20.819Z,0
2019-04-29T03:17:20.898Z,0
2019-04-29T03:18:20.776Z,0
2019-04-29T03:19:20.814Z,0
2019-04-29T03:20:20.825Z,4
2019-04-29T03:21:20.753Z,4
2019-04-29T03:22:20.793Z,4
2019-04-29T03:23:20.837Z,4
2019-04-29T03:24:20.755Z,4
2019-04-29T03:25:20.822Z,4
2019-04-29T03:26:20.827Z,8
2019-04-29T03:27:20.765Z,8
2019-04-29T03:28:20.718Z,8
2019-04-29T03:29:20.858Z,8
2019-04-29T03:30:20.745Z,8
2019-04-29T03:31:20.783Z,12
2019-04-29T03:32:20.719Z,12
2019-04-29T03:33:20.785Z,16
2019-04-29T03:34:20.827Z,20
2019-04-29T03:35:20.815Z,24
2019-04-29T03:36:20.818Z,24
2019-04-29T03:37:20.787Z,28
2019-04-29T03:38:20.823Z,36
2019-04-29T03:39:20.813Z,40
2019-04-29T03:40:20.822Z,44
2019-04-29T03:41:20.765Z,52
2019-04-29T03:42:20.765Z,60
2019-04-29T03:43:20.802Z,68
2019-04-29T03:44:20.837Z,80
2019-04-29T03:45:20.848Z,96
2019-04-29T03:46:20.791Z,108
2019-04-29T03:47:20.843Z,120
2019-04-29T03:48:20.783Z,136
2019-04-29T03:49:20.784Z,148
2019-04-29T03:50:20.770Z,164
2019-04-29T03:51:20.859Z,180
2019-04-29T03:52:20.843Z,100
2019-04-29T03:53:20.955Z,220
2019-04-29T03:54:20.775Z,240
2019-04-29T03:55:38.318Z,260
2019-04-29T03:56:20.853Z,292
2019-04-29T03:57:20.885Z,320
2019-04-29T03:58:20.786Z,352
2019-04-29T03:59:20.863Z,376
2019-04-29T04:00:20.738Z,412
2019-04-29T04:01:20.853Z,436
2019-04-29T04:02:20.786Z,468
2019-04-29T04:03:20.780Z,500
2019-04-29T04:04:20.858Z,540
2019-04-29T04:05:20.857Z,580
2019-04-29T04:06:20.744Z,620
2019-04-29T04:07:20.819Z,664
2019-04-29T04:08:20.868Z,708
2019-04-29T04:09:20.783Z,748
2019-04-29T04:10:20.886Z,780
2019-04-29T04:11:20.848Z,820
2019-04-29T04:12:20.769Z,856
2019-04-29T04:13:20.857Z,896
2019-04-29T04:14:20.778Z,944
2019-04-29T04:15:20.854Z,996
2019-04-29T04:16:20.781Z,1036
2019-04-29T04:17:21.055Z,1080
2019-04-29T04:18:20.862Z,1132
2019-04-29T04:19:20.851Z,1184
2019-04-29T04:20:20.867Z,1244
2019-04-29T04:21:20.867Z,1292
2019-04-29T04:22:20.868Z,1320
2019-04-29T04:23:20.810Z,1348
2019-04-29T04:24:20.802Z,1388
2019-04-29T04:25:20.791Z,1428
2019-04-29T04:26:20.809Z,1476
2019-04-29T04:27:20.796Z,1524
2019-04-29T04:28:20.876Z,1580
2019-04-29T04:29:20.907Z,1616
2019-04-29T04:30:20.800Z,1664
2019-04-29T04:31:20.871Z,1712
2019-04-29T04:32:20.907Z,1732
2019-04-29T04:33:20.872Z,1764
2019-04-29T04:34:20.818Z,1812
2019-04-29T04:35:20.825Z,1876
2019-04-29T04:36:20.875Z,1952
2019-04-29T04:37:20.835Z,2032
2019-04-29T04:38:20.874Z,2132
2019-04-29T04:39:20.875Z,2212
2019-04-29T04:40:20.727Z,2276
2019-04-29T04:41:20.716Z,2336
2019-04-29T04:42:20.749Z,2404
2019-04-29T04:43:20.802Z,2468
2019-04-29T04:44:20.723Z,2544
2019-04-29T04:45:20.721Z,2628
2019-04-29T04:46:20.751Z,2732
2019-04-29T04:47:20.804Z,2840
2019-04-29T04:48:20.808Z,2960
2019-04-29T04:49:20.755Z,3084
2019-04-29T04:50:20.843Z,3168
2019-04-29T04:51:20.889Z,3272
2019-04-29T04:52:20.806Z,3384
2019-04-29T04:53:20.809Z,3524
2019-04-29T04:54:20.881Z,3628
2019-04-29T04:55:20.880Z,3720
2019-04-29T04:56:20.810Z,3812
2019-04-29T04:57:20.881Z,3920
2019-04-29T04:58:20.838Z,4012
2019-04-29T04:59:20.878Z,4120
2019-04-29T05:00:20.831Z,4256
2019-04-29T05:01:20.897Z,4392
2019-04-29T05:02:20.847Z,4516
2019-04-29T05:03:20.828Z,4620
2019-04-29T05:04:20.895Z,4772
2019-04-29T05:05:20.840Z,4912
2019-04-29T05:06:20.833Z,5096
2019-04-29T05:07:20.876Z,5320
2019-04-29T05:08:20.896Z,5472
2019-04-29T05:09:20.836Z,5640
2019-04-29T05:10:20.898Z,5880
2019-04-29T05:11:20.811Z,6176
2019-04-29T05:12:20.895Z,6524
2019-04-29T05:13:27.761Z,6992
2019-04-29T05:14:20.898Z,7328
2019-04-29T05:15:20.835Z,7608
2019-04-29T05:16:20.904Z,7924
2019-04-29T05:17:20.905Z,8248
2019-04-29T05:18:20.853Z,8568
2019-04-29T05:19:20.833Z,8956
2019-04-29T05:20:20.795Z,9412
2019-04-29T05:21:20.728Z,9784
2019-04-29T05:22:20.768Z,10100
2019-04-29T05:23:20.851Z,10340
2019-04-29T05:24:20.821Z,10532
2019-04-29T05:25:20.765Z,10848
2019-04-29T05:26:20.730Z,11008
2019-04-29T05:27:20.785Z,11188
2019-04-29T05:28:20.856Z,11204
2019-04-29T05:29:20.764Z,11208
2019-04-29T05:30:20.913Z,11256
2019-04-29T05:31:20.913Z,11076
2019-04-29T05:32:20.960Z,10672
2019-04-29T05:33:20.924Z,10176
2019-04-29T05:34:20.899Z,9676
2019-04-29T05:35:24.769Z,9364
2019-04-29T05:36:20.850Z,9624
2019-04-29T05:37:20.915Z,10064
2019-04-29T05:38:20.845Z,10476
2019-04-29T05:39:20.922Z,11140
2019-04-29T05:40:20.853Z,12332
2019-04-29T05:41:20.914Z,13956
2019-04-29T05:42:20.813Z,14740
2019-04-29T05:43:20.858Z,15564
2019-04-29T05:44:20.967Z,15944
2019-04-29T05:45:20.924Z,17340
2019-04-29T05:46:21.610Z,18832
2019-04-29T05:47:20.910Z,19596
2019-04-29T05:48:20.853Z,21504
2019-04-29T05:49:20.934Z,23104
2019-04-29T05:50:20.857Z,24224
2019-04-29T05:51:22.679Z,24832
2019-04-29T05:52:20.858Z,25248
2019-04-29T05:53:20.926Z,25280
2019-04-29T05:54:20.869Z,25408
2019-04-29T05:55:20.865Z,26144
2019-04-29T05:56:20.862Z,26368
2019-04-29T05:57:25.258Z,25792
2019-04-29T05:58:20.895Z,25024
2019-04-29T05:59:20.935Z,24608
2019-04-29T06:00:23.298Z,25568
2019-04-29T06:01:20.836Z,25408
2019-04-29T06:02:24.037Z,26048
2019-04-29T06:03:20.856Z,27776
2019-04-29T06:04:20.922Z,28480
2019-04-29T06:05:20.929Z,29792
2019-04-29T06:06:20.932Z,29728
2019-04-29T06:07:21.626Z,30496
2019-04-29T06:08:20.928Z,29472
2019-04-29T06:09:20.933Z,28992
2019-04-29T06:10:22.981Z,28416
2019-04-29T06:11:23.195Z,28256
2019-04-29T06:12:20.796Z,28352
2019-04-29T06:13:20.802Z,27712
2019-04-29T06:14:22.254Z,26720
2019-04-29T06:15:20.833Z,26912
2019-04-29T06:16:22.655Z,26208
2019-04-29T06:17:20.923Z,25632
2019-04-29T06:18:22.106Z,24288
2019-04-29T06:19:20.846Z,23840
2019-04-29T06:20:22.873Z,25472
2019-04-29T06:21:20.950Z,24832
2019-04-29T06:22:20.884Z,20368
2019-04-29T06:23:23.236Z,20020
2019-04-29T06:24:20.884Z,20372
2019-04-29T06:25:20.928Z,19036
2019-04-29T06:26:20.951Z,21456
2019-04-29T06:27:20.959Z,22528
2019-04-29T06:28:21.636Z,24128
2019-04-29T06:29:20.950Z,24896
2019-04-29T06:30:20.944Z,24224
2019-04-29T06:31:20.945Z,24000
2019-04-29T06:32:24.980Z,24352
2019-04-29T06:33:24.372Z,24192
2019-04-29T06:34:20.949Z,23072
2019-04-29T06:35:20.952Z,22112
2019-04-29T06:36:20.949Z,21136
2019-04-29T06:37:20.879Z,20716
2019-04-29T06:38:20.966Z,20776
2019-04-29T06:39:20.944Z,21632
2019-04-29T06:40:20.950Z,23904
2019-04-29T06:41:20.880Z,26272
2019-04-29T06:42:20.890Z,27264
2019-04-29T06:43:24.529Z,30816
2019-04-29T06:44:20.943Z,36000
2019-04-29T06:45:20.920Z,40608
2019-04-29T06:46:20.824Z,42880
2019-04-29T06:47:20.952Z,44288
2019-04-29T06:48:20.852Z,41696
2019-04-29T06:49:20.948Z,38272
2019-04-29T06:50:20.970Z,35616
2019-04-29T06:51:20.904Z,34048
2019-04-29T06:52:20.905Z,29312
2019-04-29T06:53:21.719Z,26560
2019-04-29T06:54:20.899Z,24896
2019-04-29T06:55:20.974Z,23776
2019-04-29T06:56:20.975Z,23456
2019-04-29T06:57:20.904Z,23296
2019-04-29T06:58:20.908Z,23744
2019-04-29T06:59:21.036Z,24640
2019-04-29T07:00:22.193Z,25760
2019-04-29T07:01:20.901Z,25440
2019-04-29T07:02:20.967Z,26816
2019-04-29T07:03:25.358Z,28256
2019-04-29T07:04:20.849Z,29632
2019-04-29T07:05:20.978Z,31040
2019-04-29T07:06:20.924Z,31872
2019-04-29T07:07:20.898Z,33472
2019-04-29T07:08:20.900Z,35360
2019-04-29T07:09:20.882Z,36768
2019-04-29T07:10:24.734Z,38368
2019-04-29T07:11:21.081Z,40320
2019-04-29T07:12:20.985Z,42144
2019-04-29T07:13:22.779Z,43488
2019-04-29T07:14:20.920Z,44128
2019-04-29T07:15:20.988Z,41888
2019-04-29T07:16:21.810Z,40736
2019-04-29T07:17:20.952Z,41472
2019-04-29T07:18:20.987Z,44576
2019-04-29T07:19:22.206Z,45824
2019-04-29T07:20:20.997Z,46560
2019-04-29T07:21:21.001Z,48800
2019-04-29T07:22:25.583Z,51680
2019-04-29T07:23:20.991Z,53312
2019-04-29T07:24:21.008Z,54624
2019-04-29T07:25:24.667Z,58304
2019-04-29T07:26:20.999Z,65408
2019-04-29T07:27:20.940Z,59456
2019-04-29T07:28:20.933Z,53856
2019-04-29T07:29:21.533Z,56800
2019-04-29T07:30:20.993Z,57216
2019-04-29T07:31:20.935Z,59808
2019-04-29T07:32:20.929Z,61408
2019-04-29T07:33:22.703Z,60320
2019-04-29T07:34:20.934Z,59360
2019-04-29T07:35:21.004Z,58432
2019-04-29T07:36:22.799Z,59360
2019-04-29T07:37:21.005Z,59168
2019-04-29T07:38:21.003Z,63232
2019-04-29T07:39:21.007Z,64672
2019-04-29T07:40:20.913Z,65216
2019-04-29T07:41:20.901Z,73728
2019-04-29T07:42:25.116Z,82528
2019-04-29T07:43:20.986Z,89824
2019-04-29T07:44:20.875Z,102496
2019-04-29T07:45:23.842Z,97760
2019-04-29T07:46:21.001Z,92992
2019-04-29T07:47:24.978Z,95648
2019-04-29T07:48:20.883Z,98112
2019-04-29T07:49:20.881Z,102848
2019-04-29T07:50:22.341Z,107808
2019-04-29T07:51:20.968Z,110752
2019-04-29T07:52:20.903Z,110272
2019-04-29T07:53:34.104Z,114240
2019-04-29T07:54:20.948Z,104768
2019-04-29T07:55:20.905Z,79552
2019-04-29T07:56:20.950Z,94400
2019-04-29T07:57:21.007Z,92128
2019-04-29T07:58:23.065Z,101184
2019-04-29T07:59:20.997Z,113600
2019-04-29T08:00:20.945Z,85536
2019-04-29T08:01:24.508Z,79264
2019-04-29T08:02:21.020Z,70464
2019-04-29T08:03:21.039Z,70976
2019-04-29T08:04:20.964Z,66944
2019-04-29T08:05:21.033Z,72000
2019-04-29T08:06:20.920Z,66048
2019-04-29T08:07:20.967Z,64576
2019-04-29T08:08:22.691Z,68320
2019-04-29T08:09:20.959Z,71936
2019-04-29T08:10:23.695Z,70080
2019-04-29T08:11:21.018Z,67200
2019-04-29T08:12:21.022Z,66880
2019-04-29T08:13:21.037Z,66336
2019-04-29T08:14:21.014Z,66560
2019-04-29T08:15:21.021Z,63520
2019-04-29T08:16:20.934Z,62112
2019-04-29T08:17:20.951Z,60832
2019-04-29T08:18:20.980Z,60576
2019-04-29T08:19:24.757Z,58816
2019-04-29T08:20:21.024Z,56672
2019-04-29T08:21:20.975Z,54912
2019-04-29T08:22:22.926Z,53600
2019-04-29T08:23:20.979Z,52704
2019-04-29T08:24:20.935Z,52192
2019-04-29T08:25:21.752Z,51936
2019-04-29T08:26:20.972Z,51904
2019-04-29T08:27:20.978Z,52608
2019-04-29T08:28:21.042Z,52320
2019-04-29T08:29:20.972Z,52384
2019-04-29T08:30:20.978Z,51808
2019-04-29T08:31:22.182Z,51424
2019-04-29T08:32:21.045Z,50496
2019-04-29T08:33:21.042Z,49152
2019-04-29T08:34:23.209Z,47104
2019-04-29T08:35:21.053Z,44576
2019-04-29T08:36:21.047Z,42464
2019-04-29T08:37:20.982Z,41280
2019-04-29T08:38:21.049Z,40576
2019-04-29T08:39:21.057Z,38656
2019-04-29T08:40:20.984Z,37280
2019-04-29T08:41:28.486Z,39456
2019-04-29T08:42:20.965Z,42464
2019-04-29T08:43:22.391Z,43680
2019-04-29T08:44:20.970Z,43872
2019-04-29T08:45:20.979Z,43936
2019-04-29T08:46:20.970Z,44192
2019-04-29T08:47:23.611Z,44800
2019-04-29T08:48:20.973Z,45504
2019-04-29T08:49:21.043Z,47040
2019-04-29T08:50:20.979Z,48224
2019-04-29T08:51:20.975Z,49824
2019-04-29T08:52:21.012Z,52160
2019-04-29T08:53:21.036Z,53824
2019-04-29T08:54:21.374Z,54912
2019-04-29T08:55:20.993Z,55840
2019-04-29T08:56:20.940Z,55968
2019-04-29T08:57:20.931Z,55552
2019-04-29T08:58:20.996Z,57376
2019-04-29T08:59:24.581Z,58624
2019-04-29T09:00:21.040Z,59584
2019-04-29T09:01:24.300Z,60416
2019-04-29T09:02:33.581Z,60640
2019-04-29T09:03:23.397Z,60480
2019-04-29T09:04:21.028Z,60000
2019-04-29T09:05:21.003Z,58656
2019-04-29T09:06:21.080Z,56320
2019-04-29T09:07:22.103Z,56288
2019-04-29T09:08:21.217Z,58624
2019-04-29T09:09:29.105Z,59520
2019-04-29T09:10:21.002Z,58752
2019-04-29T09:11:21.061Z,58080
2019-04-29T09:12:24.250Z,56832
2019-04-29T09:13:21.068Z,55136
2019-04-29T09:14:21.016Z,53856
2019-04-29T09:15:21.089Z,51520
2019-04-29T09:16:20.994Z,49472
2019-04-29T09:17:21.073Z,47552
2019-04-29T09:18:20.998Z,48960
2019-04-29T09:19:21.006Z,51328
2019-04-29T09:20:21.070Z,50976
2019-04-29T09:21:21.079Z,49632
2019-04-29T09:22:21.012Z,48832
2019-04-29T09:23:21.204Z,48288
2019-04-29T09:24:21.079Z,47200
2019-04-29T09:25:21.402Z,47456
2019-04-29T09:26:24.067Z,47712
2019-04-29T09:27:21.040Z,48064
2019-04-29T09:28:27.423Z,47968
2019-04-29T09:29:21.055Z,48128
2019-04-29T09:30:21.086Z,47104
2019-04-29T09:31:21.002Z,47072
2019-04-29T09:32:21.000Z,45632
2019-04-29T09:33:21.076Z,45504
2019-04-29T09:34:24.738Z,47712
2019-04-29T09:35:20.990Z,48640
2019-04-29T09:36:20.992Z,48864
2019-04-29T09:37:22.877Z,48896
2019-04-29T09:38:21.082Z,48512
2019-04-29T09:39:21.433Z,48352
2019-04-29T09:40:21.089Z,47872
2019-04-29T09:41:21.093Z,49184
2019-04-29T09:42:21.093Z,49184
2019-04-29T09:43:21.504Z,49088
2019-04-29T09:44:21.107Z,49536
2019-04-29T09:45:24.327Z,50048
2019-04-29T09:46:21.030Z,49888
2019-04-29T09:47:21.035Z,49984
2019-04-29T09:48:21.103Z,51232
2019-04-29T09:49:21.096Z,54048
2019-04-29T09:50:21.125Z,54720
2019-04-29T09:51:22.905Z,55712
2019-04-29T09:52:21.031Z,58976
2019-04-29T09:53:21.113Z,61344
2019-04-29T09:54:21.036Z,62848
2019-04-29T09:55:21.118Z,64992
2019-04-29T09:56:21.132Z,62816
2019-04-29T09:57:21.040Z,58624
2019-04-29T09:58:21.040Z,54432
2019-04-29T09:59:21.040Z,51424
2019-04-29T10:00:21.168Z,56032
2019-04-29T10:01:21.158Z,61184
2019-04-29T10:02:21.044Z,58848
2019-04-29T10:03:20.993Z,55648
2019-04-29T10:04:21.065Z,50592
2019-04-29T10:05:21.169Z,49888
2019-04-29T10:06:21.092Z,49728
2019-04-29T10:07:21.108Z,43392
2019-04-29T10:08:21.014Z,42304
2019-04-29T10:09:21.104Z,45664
2019-04-29T10:10:21.003Z,48480
2019-04-29T10:11:21.070Z,48704
2019-04-29T10:12:21.106Z,48576
2019-04-29T10:13:21.012Z,47232
2019-04-29T10:14:21.100Z,45408
2019-04-29T10:15:21.007Z,46144
2019-04-29T10:16:21.009Z,48128
2019-04-29T10:17:20.997Z,51104
2019-04-29T10:18:25.051Z,53472
2019-04-29T10:19:21.078Z,54560
2019-04-29T10:20:21.019Z,55488
2019-04-29T10:21:22.990Z,56416
2019-04-29T10:22:21.051Z,56704
2019-04-29T10:23:21.131Z,52768
2019-04-29T10:24:21.059Z,50368
2019-04-29T10:25:21.124Z,48192
2019-04-29T10:26:21.223Z,45920
2019-04-29T10:27:21.129Z,44544
2019-04-29T10:28:21.190Z,42848
2019-04-29T10:29:21.061Z,43072
2019-04-29T10:30:21.063Z,41824
2019-04-29T10:31:21.066Z,40192
2019-04-29T10:32:21.132Z,39904
2019-04-29T10:33:23.077Z,40256
2019-04-29T10:34:21.071Z,39424
2019-04-29T10:35:21.064Z,37120
2019-04-29T10:36:21.896Z,34080
2019-04-29T10:37:23.204Z,32736
2019-04-29T10:38:21.133Z,34272
2019-04-29T10:39:22.704Z,37248
2019-04-29T10:40:21.068Z,38944
2019-04-29T10:41:21.127Z,40288
2019-04-29T10:42:22.898Z,43040
2019-04-29T10:43:21.131Z,45312
2019-04-29T10:44:21.058Z,46016
2019-04-29T10:45:21.099Z,45984
2019-04-29T10:46:21.045Z,45248
2019-04-29T10:47:21.133Z,42336
2019-04-29T10:48:21.056Z,39168
2019-04-29T10:49:21.136Z,36928
2019-04-29T10:50:23.694Z,35392
2019-04-29T10:51:23.225Z,34208
2019-04-29T10:52:21.080Z,32896
2019-04-29T10:53:21.142Z,32608
2019-04-29T10:54:21.147Z,31072
2019-04-29T10:55:21.091Z,28160
2019-04-29T10:56:21.150Z,25184
2019-04-29T10:57:21.150Z,24480
2019-04-29T10:58:21.972Z,25472
2019-04-29T10:59:34.995Z,24896
2019-04-29T11:00:21.751Z,23296
2019-04-29T11:01:21.098Z,22784
2019-04-29T11:02:21.167Z,22944
2019-04-29T11:03:25.037Z,22432
2019-04-29T11:04:21.153Z,21128
2019-04-29T11:05:21.088Z,20060
2019-04-29T11:06:21.153Z,19012
2019-04-29T11:07:26.319Z,16604
2019-04-29T11:08:21.090Z,14236
2019-04-29T11:09:21.087Z,13008
2019-04-29T11:10:25.411Z,13112
2019-04-29T11:11:24.140Z,13956
2019-04-29T11:12:21.157Z,14516
2019-04-29T11:13:21.160Z,15328
2019-04-29T11:14:21.163Z,16100
2019-04-29T11:15:21.163Z,17036
2019-04-29T11:16:23.027Z,18000
2019-04-29T11:17:21.102Z,18560
2019-04-29T11:18:23.190Z,18364
2019-04-29T11:19:21.183Z,18168
2019-04-29T11:20:21.561Z,18592
2019-04-29T11:21:21.105Z,17544
2019-04-29T11:22:21.157Z,16104
2019-04-29T11:23:21.047Z,14920
2019-04-29T11:24:21.062Z,13464
2019-04-29T11:25:21.159Z,12676
2019-04-29T11:26:21.124Z,12780
2019-04-29T11:27:21.041Z,13160
2019-04-29T11:28:21.088Z,13772
2019-04-29T11:29:22.021Z,14128
2019-04-29T11:30:21.118Z,14588
2019-04-29T11:31:21.104Z,15012
2019-04-29T11:32:24.776Z,15092
2019-04-29T11:33:21.102Z,14400
2019-04-29T11:34:21.117Z,14056
2019-04-29T11:35:24.619Z,13748
2019-04-29T11:36:21.118Z,13592
2019-04-29T11:37:23.872Z,13676
2019-04-29T11:38:21.125Z,13172
2019-04-29T11:39:21.203Z,11872
2019-04-29T11:40:25.997Z,11308
2019-04-29T11:41:21.096Z,11264
2019-04-29T11:42:21.082Z,11156
2019-04-29T11:43:21.173Z,11468
2019-04-29T11:44:22.058Z,12440
2019-04-29T11:45:21.109Z,13704
2019-04-29T11:46:21.247Z,15564
2019-04-29T11:47:25.156Z,16148
2019-04-29T11:48:21.088Z,16732
2019-04-29T11:49:21.179Z,17256
2019-04-29T11:50:21.147Z,17104
2019-04-29T11:51:21.118Z,16348
2019-04-29T11:52:23.681Z,15348
2019-04-29T11:53:21.170Z,15408
2019-04-29T11:54:21.056Z,16040
2019-04-29T11:55:21.131Z,15520
2019-04-29T11:56:21.135Z,14648
2019-04-29T11:57:21.171Z,13976
2019-04-29T11:58:21.144Z,14284
2019-04-29T11:59:21.179Z,14916
2019-04-29T12:00:21.200Z,15160
2019-04-29T12:01:21.147Z,15008
2019-04-29T12:02:24.249Z,14704
2019-04-29T12:03:21.063Z,13928
2019-04-29T12:04:21.068Z,13228
2019-04-29T12:05:21.177Z,13952
2019-04-29T12:06:21.889Z,14848
2019-04-29T12:07:21.342Z,15420
2019-04-29T12:08:21.068Z,15664
2019-04-29T12:09:25.483Z,15544
2019-04-29T12:10:21.172Z,15352
2019-04-29T12:11:21.168Z,15984
2019-04-29T12:12:21.202Z,16836
2019-04-29T12:13:27.085Z,18364
2019-04-29T12:14:21.206Z,20112
2019-04-29T12:15:21.137Z,20516
2019-04-29T12:16:24.488Z,21088
2019-04-29T12:17:21.151Z,22176
2019-04-29T12:18:21.144Z,21388
2019-04-29T12:19:22.458Z,20444
2019-04-29T12:20:21.210Z,21920
2019-04-29T12:21:21.206Z,23840
2019-04-29T12:22:30.089Z,24992
2019-04-29T12:23:21.302Z,24288
2019-04-29T12:24:21.144Z,22464
2019-04-29T12:25:23.014Z,21556
2019-04-29T12:26:21.150Z,21192
2019-04-29T12:27:21.738Z,20868
2019-04-29T12:28:21.149Z,21260
2019-04-29T12:29:21.356Z,20792
2019-04-29T12:30:21.160Z,20340
2019-04-29T12:31:21.156Z,20496
2019-04-29T12:32:25.003Z,20324
2019-04-29T12:33:21.151Z,20724
2019-04-29T12:34:21.219Z,20120
2019-04-29T12:35:21.853Z,20928
2019-04-29T12:36:21.223Z,22560
2019-04-29T12:37:21.157Z,23104
2019-04-29T12:38:21.231Z,22368
2019-04-29T12:39:42.322Z,22944
2019-04-29T12:40:21.234Z,23520
2019-04-29T12:41:25.322Z,22976
2019-04-29T12:42:21.225Z,20296
2019-04-29T12:43:21.161Z,20944
2019-04-29T12:44:34.394Z,22464
2019-04-29T12:45:21.348Z,23264
2019-04-29T12:46:21.163Z,24096
2019-04-29T12:47:26.531Z,23584
2019-04-29T12:48:24.842Z,23904
2019-04-29T12:49:21.242Z,23360
2019-04-29T12:50:21.671Z,24256
2019-04-29T12:51:21.220Z,26592
2019-04-29T12:52:21.106Z,28480
2019-04-29T12:53:21.133Z,33952
2019-04-29T12:54:21.128Z,33952
2019-04-29T12:55:39.311Z,34112
2019-04-29T12:56:21.192Z,31872
2019-04-29T12:57:23.419Z,28992
2019-04-29T12:58:24.338Z,28896
2019-04-29T12:59:21.408Z,28096
2019-04-29T13:00:21.161Z,26816
2019-04-29T13:01:21.243Z,27392
2019-04-29T13:02:24.309Z,24384
2019-04-29T13:03:21.178Z,20884
2019-04-29T13:04:21.184Z,21192
2019-04-29T13:05:21.188Z,21148
2019-04-29T13:06:23.933Z,18192
2019-04-29T13:07:21.177Z,19500
2019-04-29T13:08:21.244Z,20872
2019-04-29T13:09:21.179Z,19540
2019-04-29T13:10:21.255Z,19200
2019-04-29T13:11:35.657Z,17912
2019-04-29T13:12:21.235Z,16904
2019-04-29T13:13:22.047Z,16528
2019-04-29T13:14:21.152Z,15416
2019-04-29T13:15:21.185Z,15420
2019-04-29T13:16:22.057Z,14068
2019-04-29T13:17:21.241Z,12652
2019-04-29T13:18:23.395Z,11972
2019-04-29T13:19:25.207Z,11976
2019-04-29T13:20:21.172Z,10740
2019-04-29T13:21:21.262Z,10648
2019-04-29T13:22:21.206Z,11376
2019-04-29T13:23:33.341Z,10572
2019-04-29T13:24:24.474Z,10420
2019-04-29T13:25:21.189Z,11712
2019-04-29T13:26:28.075Z,11648